<?xml version="1.0" encoding="UTF-8" standalone="no" ?>
<gpx xmlns="http://www.topografix.com/GPX/1/1" xmlns:xsi="http://www.w3.org/2001/XMLSchema-instance" xsi:schemaLocation="http://www.topografix.com/GPX/1/1 http://www.topografix.com/GPX/1/1/gpx.xsd" version="1.1" creator="VisuGPX - https://www.visugpx.com">
  <metadata>
    <name>11577962-Ferrieres sur Sichon 03250.</name>
    <desc><![CDATA[Circuit non balisé, à faire avec carte en main où GPS.]]></desc>
  </metadata>
  <trk>
    <name><![CDATA[11577962-ferrieres]]></name>
    <trkseg>
      <trkpt lat="46.02434" lon="3.64727">
        <ele>543</ele>
        <time>2020-07-02T05:28:31Z</time>
      </trkpt>
      <trkpt lat="46.02316" lon="3.64757">
        <ele>549</ele>
        <time>2020-07-02T05:31:11Z</time>
      </trkpt>
      <trkpt lat="46.02223" lon="3.64763">
        <ele>565</ele>
        <time>2020-07-02T05:33:15Z</time>
      </trkpt>
      <trkpt lat="46.0216" lon="3.64696">
        <ele>577</ele>
        <time>2020-07-02T05:35:00Z</time>
      </trkpt>
      <trkpt lat="46.02096" lon="3.64678">
        <ele>586</ele>
        <time>2020-07-02T05:36:27Z</time>
      </trkpt>
      <trkpt lat="46.02054" lon="3.64599">
        <ele>593</ele>
        <time>2020-07-02T05:37:59Z</time>
      </trkpt>
      <trkpt lat="46.02" lon="3.64629">
        <ele>602</ele>
        <time>2020-07-02T05:39:16Z</time>
      </trkpt>
      <trkpt lat="46.01957" lon="3.6469">
        <ele>611</ele>
        <time>2020-07-02T05:40:37Z</time>
      </trkpt>
      <trkpt lat="46.01932" lon="3.64697">
        <ele>616</ele>
        <time>2020-07-02T05:41:11Z</time>
      </trkpt>
      <trkpt lat="46.01855" lon="3.64638">
        <ele>647</ele>
        <time>2020-07-02T05:43:07Z</time>
      </trkpt>
      <trkpt lat="46.01845" lon="3.64434">
        <ele>646</ele>
        <time>2020-07-02T05:46:17Z</time>
      </trkpt>
      <trkpt lat="46.01763" lon="3.64365">
        <ele>662</ele>
        <time>2020-07-02T05:48:23Z</time>
      </trkpt>
      <trkpt lat="46.01667" lon="3.64304">
        <ele>666</ele>
        <time>2020-07-02T05:50:43Z</time>
      </trkpt>
      <trkpt lat="46.01506" lon="3.6432">
        <ele>655</ele>
        <time>2020-07-02T05:54:19Z</time>
      </trkpt>
      <trkpt lat="46.01405" lon="3.64452">
        <ele>663</ele>
        <time>2020-07-02T05:57:21Z</time>
      </trkpt>
      <trkpt lat="46.01357" lon="3.64584">
        <ele>669</ele>
        <time>2020-07-02T05:59:39Z</time>
      </trkpt>
      <trkpt lat="46.01397" lon="3.64733">
        <ele>684</ele>
        <time>2020-07-02T06:02:07Z</time>
      </trkpt>
      <trkpt lat="46.0134" lon="3.64934">
        <ele>692</ele>
        <time>2020-07-02T06:05:28Z</time>
      </trkpt>
      <trkpt lat="46.01304" lon="3.64994">
        <ele>691</ele>
        <time>2020-07-02T06:06:42Z</time>
      </trkpt>
      <trkpt lat="46.01169" lon="3.65176">
        <ele>695</ele>
        <time>2020-07-02T06:10:48Z</time>
      </trkpt>
      <trkpt lat="46.01099" lon="3.65281">
        <ele>700</ele>
        <time>2020-07-02T06:13:03Z</time>
      </trkpt>
      <trkpt lat="46.01005" lon="3.65327">
        <ele>707</ele>
        <time>2020-07-02T06:15:16Z</time>
      </trkpt>
      <trkpt lat="46.00904" lon="3.65449">
        <ele>708</ele>
        <time>2020-07-02T06:18:12Z</time>
      </trkpt>
      <trkpt lat="46.00781" lon="3.65534">
        <ele>714</ele>
        <time>2020-07-02T06:21:14Z</time>
      </trkpt>
      <trkpt lat="46.00596" lon="3.65607">
        <ele>721</ele>
        <time>2020-07-02T06:25:30Z</time>
      </trkpt>
      <trkpt lat="46.0055" lon="3.65807">
        <ele>721</ele>
        <time>2020-07-02T06:28:45Z</time>
      </trkpt>
      <trkpt lat="46.00469" lon="3.65769">
        <ele>714</ele>
        <time>2020-07-02T06:30:39Z</time>
      </trkpt>
      <trkpt lat="46.0036" lon="3.65868">
        <ele>706</ele>
        <time>2020-07-02T06:33:31Z</time>
      </trkpt>
      <trkpt lat="46.00292" lon="3.66037">
        <ele>703</ele>
        <time>2020-07-02T06:36:32Z</time>
      </trkpt>
      <trkpt lat="46.00166" lon="3.66122">
        <ele>706</ele>
        <time>2020-07-02T06:39:37Z</time>
      </trkpt>
      <trkpt lat="46.00048" lon="3.66074">
        <ele>707</ele>
        <time>2020-07-02T06:42:21Z</time>
      </trkpt>
      <trkpt lat="45.99925" lon="3.66001">
        <ele>709</ele>
        <time>2020-07-02T06:45:19Z</time>
      </trkpt>
      <trkpt lat="45.99833" lon="3.66037">
        <ele>717</ele>
        <time>2020-07-02T06:47:26Z</time>
      </trkpt>
      <trkpt lat="45.99791" lon="3.66016">
        <ele>713</ele>
        <time>2020-07-02T06:48:25Z</time>
      </trkpt>
      <trkpt lat="45.9983" lon="3.66131">
        <ele>724</ele>
        <time>2020-07-02T06:50:24Z</time>
      </trkpt>
      <trkpt lat="45.99856" lon="3.66164">
        <ele>728</ele>
        <time>2020-07-02T06:51:10Z</time>
      </trkpt>
      <trkpt lat="45.99948" lon="3.66251">
        <ele>739</ele>
        <time>2020-07-02T06:53:37Z</time>
      </trkpt>
      <trkpt lat="45.99936" lon="3.6634">
        <ele>750</ele>
        <time>2020-07-02T06:55:01Z</time>
      </trkpt>
      <trkpt lat="45.99865" lon="3.6647">
        <ele>761</ele>
        <time>2020-07-02T06:57:34Z</time>
      </trkpt>
      <trkpt lat="45.99986" lon="3.66424">
        <ele>760</ele>
        <time>2020-07-02T07:00:21Z</time>
      </trkpt>
      <trkpt lat="46.00124" lon="3.66493">
        <ele>764</ele>
        <time>2020-07-02T07:03:36Z</time>
      </trkpt>
      <trkpt lat="46.00283" lon="3.66468">
        <ele>749</ele>
        <time>2020-07-02T07:07:10Z</time>
      </trkpt>
      <trkpt lat="46.00365" lon="3.66496">
        <ele>746</ele>
        <time>2020-07-02T07:09:02Z</time>
      </trkpt>
      <trkpt lat="46.0041" lon="3.66402">
        <ele>745</ele>
        <time>2020-07-02T07:10:48Z</time>
      </trkpt>
      <trkpt lat="46.00575" lon="3.66013">
        <ele>728</ele>
        <time>2020-07-02T07:17:50Z</time>
      </trkpt>
      <trkpt lat="46.00697" lon="3.66329">
        <ele>712</ele>
        <time>2020-07-02T07:23:25Z</time>
      </trkpt>
      <trkpt lat="46.00676" lon="3.66547">
        <ele>714</ele>
        <time>2020-07-02T07:26:49Z</time>
      </trkpt>
      <trkpt lat="46.00781" lon="3.66978">
        <ele>671</ele>
        <time>2020-07-02T07:33:53Z</time>
      </trkpt>
      <trkpt lat="46.00967" lon="3.67348">
        <ele>636</ele>
        <time>2020-07-02T07:40:56Z</time>
      </trkpt>
      <trkpt lat="46.00948" lon="3.67152">
        <ele>648</ele>
        <time>2020-07-02T07:44:00Z</time>
      </trkpt>
      <trkpt lat="46.01081" lon="3.66918">
        <ele>657</ele>
        <time>2020-07-02T07:48:40Z</time>
      </trkpt>
      <trkpt lat="46.01157" lon="3.66735">
        <ele>647</ele>
        <time>2020-07-02T07:51:57Z</time>
      </trkpt>
      <trkpt lat="46.0117" lon="3.66657">
        <ele>653</ele>
        <time>2020-07-02T07:53:12Z</time>
      </trkpt>
      <trkpt lat="46.01216" lon="3.66626">
        <ele>650</ele>
        <time>2020-07-02T07:54:20Z</time>
      </trkpt>
      <trkpt lat="46.01325" lon="3.66529">
        <ele>649</ele>
        <time>2020-07-02T07:57:11Z</time>
      </trkpt>
      <trkpt lat="46.01388" lon="3.66408">
        <ele>648</ele>
        <time>2020-07-02T07:59:31Z</time>
      </trkpt>
      <trkpt lat="46.01266" lon="3.66098">
        <ele>632</ele>
        <time>2020-07-02T08:05:01Z</time>
      </trkpt>
      <trkpt lat="46.01168" lon="3.65934">
        <ele>630</ele>
        <time>2020-07-02T08:08:21Z</time>
      </trkpt>
      <trkpt lat="46.01271" lon="3.65947">
        <ele>630</ele>
        <time>2020-07-02T08:10:39Z</time>
      </trkpt>
      <trkpt lat="46.01376" lon="3.65837">
        <ele>639</ele>
        <time>2020-07-02T08:13:33Z</time>
      </trkpt>
      <trkpt lat="46.01469" lon="3.65763">
        <ele>635</ele>
        <time>2020-07-02T08:15:54Z</time>
      </trkpt>
      <trkpt lat="46.01502" lon="3.65649">
        <ele>636</ele>
        <time>2020-07-02T08:17:49Z</time>
      </trkpt>
      <trkpt lat="46.01508" lon="3.65434">
        <ele>632</ele>
        <time>2020-07-02T08:21:08Z</time>
      </trkpt>
      <trkpt lat="46.01688" lon="3.65376">
        <ele>636</ele>
        <time>2020-07-02T08:25:14Z</time>
      </trkpt>
      <trkpt lat="46.01838" lon="3.65266">
        <ele>614</ele>
        <time>2020-07-02T08:28:59Z</time>
      </trkpt>
      <trkpt lat="46.01907" lon="3.65139">
        <ele>607</ele>
        <time>2020-07-02T08:31:29Z</time>
      </trkpt>
      <trkpt lat="46.02105" lon="3.65091">
        <ele>577</ele>
        <time>2020-07-02T08:35:56Z</time>
      </trkpt>
      <trkpt lat="46.02299" lon="3.64848">
        <ele>554</ele>
        <time>2020-07-02T08:41:40Z</time>
      </trkpt>
      <trkpt lat="46.02327" lon="3.64875">
        <ele>551</ele>
        <time>2020-07-02T08:42:25Z</time>
      </trkpt>
      <trkpt lat="46.02438" lon="3.64767">
        <ele>544</ele>
        <time>2020-07-02T08:45:23Z</time>
      </trkpt>
    </trkseg>
  </trk>
</gpx>